sensor_id;sensor_type;location;lat;lon;timestamp;P1;durP1;ratioP1;P2;durP2;ratioP2
30515;SDS011;17297;54.022;10.760;2023-04-06T00:00:21;14.68;;;8.05;;
30515;SDS011;17297;54.022;10.760;2023-04-06T00:02:47;15.38;;;9.00;;
30515;SDS011;17297;54.022;10.760;2023-04-06T00:05:13;15.88;;;10.07;;
30515;SDS011;17297;54.022;10.760;2023-04-06T00:07:38;14.02;;;9.43;;
30515;SDS011;17297;54.022;10.760;2023-04-06T00:10:03;15.23;;;9.02;;
30515;SDS011;17297;54.022;10.760;2023-04-06T00:12:30;16.40;;;9.15;;
30515;SDS011;17297;54.022;10.760;2023-04-06T00:14:56;12.02;;;8.00;;
30515;SDS011;17297;54.022;10.760;2023-04-06T00:17:21;13.30;;;8.25;;
30515;SDS011;17297;54.022;10.760;2023-04-06T00:19:46;13.35;;;8.73;;
30515;SDS011;17297;54.022;10.760;2023-04-06T00:22:12;12.90;;;8.27;;
30515;SDS011;17297;54.022;10.760;2023-04-06T00:24:37;14.20;;;8.82;;
30515;SDS011;17297;54.022;10.760;2023-04-06T00:27:02;16.38;;;9.95;;
30515;SDS011;17297;54.022;10.760;2023-04-06T00:29:28;14.32;;;8.30;;
30515;SDS011;17297;54.022;10.760;2023-04-06T00:31:53;14.95;;;8.02;;
30515;SDS011;17297;54.022;10.760;2023-04-06T00:34:18;10.18;;;8.10;;
30515;SDS011;17297;54.022;10.760;2023-04-06T00:36:44;14.20;;;8.65;;
30515;SDS011;17297;54.022;10.760;2023-04-06T00:39:09;13.30;;;8.68;;
30515;SDS011;17297;54.022;10.760;2023-04-06T00:41:35;13.85;;;8.82;;
30515;SDS011;17297;54.022;10.760;2023-04-06T00:44:00;17.05;;;9.43;;
30515;SDS011;17297;54.022;10.760;2023-04-06T00:46:26;14.35;;;9.38;;
30515;SDS011;17297;54.022;10.760;2023-04-06T00:48:51;16.55;;;9.68;;
30515;SDS011;17297;54.022;10.760;2023-04-06T00:51:16;19.95;;;11.10;;
30515;SDS011;17297;54.022;10.760;2023-04-06T00:53:42;14.35;;;9.95;;
30515;SDS011;17297;54.022;10.760;2023-04-06T00:56:09;13.27;;;7.93;;
30515;SDS011;17297;54.022;10.760;2023-04-06T00:58:46;15.65;;;9.02;;
30515;SDS011;17297;54.022;10.760;2023-04-06T01:01:11;13.30;;;8.70;;
30515;SDS011;17297;54.022;10.760;2023-04-06T01:03:37;13.07;;;9.48;;
30515;SDS011;17297;54.022;10.760;2023-04-06T01:06:03;15.07;;;9.90;;
30515;SDS011;17297;54.022;10.760;2023-04-06T01:08:35;15.95;;;8.90;;
30515;SDS011;17297;54.022;10.760;2023-04-06T01:11:13;16.60;;;9.60;;
30515;SDS011;17297;54.022;10.760;2023-04-06T01:13:39;11.50;;;7.55;;
30515;SDS011;17297;54.022;10.760;2023-04-06T01:16:07;15.00;;;9.55;;
30515;SDS011;17297;54.022;10.760;2023-04-06T01:19:01;11.13;;;8.07;;
30515;SDS011;17297;54.022;10.760;2023-04-06T01:21:30;13.38;;;9.10;;
30515;SDS011;17297;54.022;10.760;2023-04-06T01:24:10;12.85;;;9.15;;
30515;SDS011;17297;54.022;10.760;2023-04-06T01:26:58;13.65;;;8.57;;
30515;SDS011;17297;54.022;10.760;2023-04-06T01:29:28;13.70;;;9.27;;
30515;SDS011;17297;54.022;10.760;2023-04-06T01:31:54;15.93;;;9.25;;
30515;SDS011;17297;54.022;10.760;2023-04-06T01:34:20;15.05;;;10.10;;
30515;SDS011;17297;54.022;10.760;2023-04-06T01:36:46;14.27;;;8.57;;
30515;SDS011;17297;54.022;10.760;2023-04-06T01:39:27;13.02;;;8.55;;
30515;SDS011;17297;54.022;10.760;2023-04-06T01:41:52;14.07;;;9.13;;
30515;SDS011;17297;54.022;10.760;2023-04-06T01:44:20;15.48;;;9.48;;
30515;SDS011;17297;54.022;10.760;2023-04-06T01:46:51;14.73;;;9.68;;
30515;SDS011;17297;54.022;10.760;2023-04-06T01:49:18;14.60;;;9.50;;
30515;SDS011;17297;54.022;10.760;2023-04-06T01:51:48;16.23;;;10.35;;
30515;SDS011;17297;54.022;10.760;2023-04-06T01:54:13;11.90;;;8.57;;
30515;SDS011;17297;54.022;10.760;2023-04-06T01:57:08;15.88;;;9.55;;
30515;SDS011;17297;54.022;10.760;2023-04-06T01:59:41;15.27;;;9.65;;
30515;SDS011;17297;54.022;10.760;2023-04-06T02:02:14;14.32;;;9.10;;
30515;SDS011;17297;54.022;10.760;2023-04-06T02:04:48;15.77;;;9.23;;
30515;SDS011;17297;54.022;10.760;2023-04-06T02:07:14;15.65;;;9.18;;
30515;SDS011;17297;54.022;10.760;2023-04-06T02:09:39;13.65;;;8.95;;
30515;SDS011;17297;54.022;10.760;2023-04-06T02:12:09;13.70;;;8.95;;
30515;SDS011;17297;54.022;10.760;2023-04-06T02:14:34;14.00;;;8.75;;
30515;SDS011;17297;54.022;10.760;2023-04-06T02:17:00;13.45;;;9.38;;
30515;SDS011;17297;54.022;10.760;2023-04-06T02:19:25;14.73;;;9.15;;
30515;SDS011;17297;54.022;10.760;2023-04-06T02:21:51;14.18;;;8.60;;
30515;SDS011;17297;54.022;10.760;2023-04-06T02:24:16;13.75;;;8.43;;
30515;SDS011;17297;54.022;10.760;2023-04-06T02:26:42;11.30;;;7.88;;
30515;SDS011;17297;54.022;10.760;2023-04-06T02:29:08;13.20;;;8.60;;
30515;SDS011;17297;54.022;10.760;2023-04-06T02:31:33;14.55;;;8.73;;
30515;SDS011;17297;54.022;10.760;2023-04-06T02:34:00;12.57;;;8.95;;
30515;SDS011;17297;54.022;10.760;2023-04-06T02:36:27;11.07;;;8.05;;
30515;SDS011;17297;54.022;10.760;2023-04-06T02:38:53;13.88;;;9.57;;
30515;SDS011;17297;54.022;10.760;2023-04-06T02:41:18;12.15;;;8.15;;
30515;SDS011;17297;54.022;10.760;2023-04-06T02:43:43;13.40;;;8.00;;
30515;SDS011;17297;54.022;10.760;2023-04-06T02:46:17;12.00;;;7.45;;
30515;SDS011;17297;54.022;10.760;2023-04-06T02:48:42;11.82;;;7.63;;
30515;SDS011;17297;54.022;10.760;2023-04-06T02:51:07;12.57;;;7.82;;
30515;SDS011;17297;54.022;10.760;2023-04-06T02:53:34;11.23;;;7.63;;
30515;SDS011;17297;54.022;10.760;2023-04-06T02:55:59;12.32;;;8.40;;
30515;SDS011;17297;54.022;10.760;2023-04-06T02:58:32;9.85;;;6.60;;
30515;SDS011;17297;54.022;10.760;2023-04-06T03:00:58;10.77;;;7.47;;
30515;SDS011;17297;54.022;10.760;2023-04-06T03:03:23;10.27;;;7.65;;
30515;SDS011;17297;54.022;10.760;2023-04-06T03:05:49;12.25;;;7.18;;
30515;SDS011;17297;54.022;10.760;2023-04-06T03:08:21;9.70;;;6.85;;
30515;SDS011;17297;54.022;10.760;2023-04-06T03:10:46;10.82;;;7.13;;
30515;SDS011;17297;54.022;10.760;2023-04-06T03:13:13;9.82;;;7.10;;
30515;SDS011;17297;54.022;10.760;2023-04-06T03:15:50;12.02;;;7.60;;
30515;SDS011;17297;54.022;10.760;2023-04-06T03:18:20;12.52;;;7.25;;
30515;SDS011;17297;54.022;10.760;2023-04-06T03:20:48;9.30;;;6.35;;
30515;SDS011;17297;54.022;10.760;2023-04-06T03:23:15;11.57;;;6.90;;
30515;SDS011;17297;54.022;10.760;2023-04-06T03:25:43;11.40;;;8.40;;
30515;SDS011;17297;54.022;10.760;2023-04-06T03:28:13;12.45;;;7.70;;
30515;SDS011;17297;54.022;10.760;2023-04-06T03:30:58;8.65;;;6.75;;
30515;SDS011;17297;54.022;10.760;2023-04-06T03:33:39;10.40;;;7.10;;
30515;SDS011;17297;54.022;10.760;2023-04-06T03:36:07;12.30;;;7.60;;
30515;SDS011;17297;54.022;10.760;2023-04-06T03:38:37;13.88;;;8.63;;
30515;SDS011;17297;54.022;10.760;2023-04-06T03:41:08;12.10;;;8.65;;
30515;SDS011;17297;54.022;10.760;2023-04-06T03:43:34;13.48;;;8.77;;
30515;SDS011;17297;54.022;10.760;2023-04-06T03:45:59;12.82;;;8.52;;
30515;SDS011;17297;54.022;10.760;2023-04-06T03:48:26;12.27;;;7.68;;
30515;SDS011;17297;54.022;10.760;2023-04-06T03:50:51;15.57;;;9.05;;
30515;SDS011;17297;54.022;10.760;2023-04-06T03:53:17;11.10;;;7.43;;
30515;SDS011;17297;54.022;10.760;2023-04-06T03:55:42;11.70;;;7.22;;
30515;SDS011;17297;54.022;10.760;2023-04-06T03:58:08;13.98;;;8.50;;
30515;SDS011;17297;54.022;10.760;2023-04-06T04:00:33;12.70;;;8.13;;
30515;SDS011;17297;54.022;10.760;2023-04-06T04:02:58;12.07;;;8.25;;
30515;SDS011;17297;54.022;10.760;2023-04-06T04:05:24;11.65;;;7.43;;
30515;SDS011;17297;54.022;10.760;2023-04-06T04:07:51;12.88;;;8.88;;
30515;SDS011;17297;54.022;10.760;2023-04-06T04:10:17;13.10;;;7.75;;
30515;SDS011;17297;54.022;10.760;2023-04-06T04:12:42;13.38;;;8.82;;
30515;SDS011;17297;54.022;10.760;2023-04-06T04:15:08;14.57;;;8.10;;
30515;SDS011;17297;54.022;10.760;2023-04-06T04:17:33;10.38;;;6.72;;
30515;SDS011;17297;54.022;10.760;2023-04-06T04:19:59;12.70;;;6.75;;
30515;SDS011;17297;54.022;10.760;2023-04-06T04:22:24;10.57;;;7.80;;
30515;SDS011;17297;54.022;10.760;2023-04-06T04:24:50;10.98;;;7.18;;
30515;SDS011;17297;54.022;10.760;2023-04-06T04:27:16;16.13;;;10.32;;
30515;SDS011;17297;54.022;10.760;2023-04-06T04:29:41;11.45;;;7.25;;
30515;SDS011;17297;54.022;10.760;2023-04-06T04:32:10;13.25;;;8.63;;
30515;SDS011;17297;54.022;10.760;2023-04-06T04:34:36;12.55;;;8.23;;
30515;SDS011;17297;54.022;10.760;2023-04-06T04:37:06;13.13;;;7.32;;
30515;SDS011;17297;54.022;10.760;2023-04-06T04:39:46;13.65;;;8.38;;
30515;SDS011;17297;54.022;10.760;2023-04-06T04:42:12;11.35;;;7.38;;
30515;SDS011;17297;54.022;10.760;2023-04-06T04:44:43;12.90;;;8.02;;
30515;SDS011;17297;54.022;10.760;2023-04-06T04:47:09;12.95;;;8.20;;
30515;SDS011;17297;54.022;10.760;2023-04-06T04:49:44;12.88;;;8.13;;
30515;SDS011;17297;54.022;10.760;2023-04-06T04:52:13;12.75;;;7.63;;
30515;SDS011;17297;54.022;10.760;2023-04-06T04:54:50;12.25;;;7.78;;
30515;SDS011;17297;54.022;10.760;2023-04-06T04:57:22;12.40;;;9.18;;
30515;SDS011;17297;54.022;10.760;2023-04-06T04:59:48;14.52;;;8.85;;
30515;SDS011;17297;54.022;10.760;2023-04-06T05:02:17;11.68;;;8.55;;
30515;SDS011;17297;54.022;10.760;2023-04-06T05:05:08;13.15;;;9.45;;
30515;SDS011;17297;54.022;10.760;2023-04-06T05:07:38;11.70;;;8.73;;
30515;SDS011;17297;54.022;10.760;2023-04-06T05:10:05;14.18;;;9.38;;
30515;SDS011;17297;54.022;10.760;2023-04-06T05:12:37;13.02;;;8.57;;
30515;SDS011;17297;54.022;10.760;2023-04-06T05:15:07;14.25;;;8.77;;
30515;SDS011;17297;54.022;10.760;2023-04-06T05:17:33;12.63;;;8.88;;
30515;SDS011;17297;54.022;10.760;2023-04-06T05:19:59;11.50;;;8.65;;
30515;SDS011;17297;54.022;10.760;2023-04-06T05:22:26;15.57;;;9.95;;
30515;SDS011;17297;54.022;10.760;2023-04-06T05:25:03;15.13;;;11.05;;
30515;SDS011;17297;54.022;10.760;2023-04-06T05:27:30;16.90;;;10.88;;
30515;SDS011;17297;54.022;10.760;2023-04-06T05:29:57;16.63;;;9.90;;
30515;SDS011;17297;54.022;10.760;2023-04-06T05:32:24;13.20;;;9.18;;
30515;SDS011;17297;54.022;10.760;2023-04-06T05:34:50;17.45;;;10.05;;
30515;SDS011;17297;54.022;10.760;2023-04-06T05:37:16;13.68;;;9.77;;
30515;SDS011;17297;54.022;10.760;2023-04-06T05:39:41;12.90;;;8.65;;
30515;SDS011;17297;54.022;10.760;2023-04-06T05:42:07;14.80;;;9.77;;
30515;SDS011;17297;54.022;10.760;2023-04-06T05:44:45;13.30;;;9.57;;
30515;SDS011;17297;54.022;10.760;2023-04-06T05:47:13;13.98;;;9.68;;
30515;SDS011;17297;54.022;10.760;2023-04-06T05:49:43;14.10;;;9.45;;
30515;SDS011;17297;54.022;10.760;2023-04-06T05:52:14;12.70;;;9.60;;
30515;SDS011;17297;54.022;10.760;2023-04-06T05:54:43;14.20;;;9.57;;
30515;SDS011;17297;54.022;10.760;2023-04-06T05:57:09;17.63;;;11.10;;
30515;SDS011;17297;54.022;10.760;2023-04-06T05:59:34;11.73;;;8.40;;
30515;SDS011;17297;54.022;10.760;2023-04-06T06:02:00;16.70;;;10.23;;
30515;SDS011;17297;54.022;10.760;2023-04-06T06:04:30;13.15;;;8.80;;
30515;SDS011;17297;54.022;10.760;2023-04-06T06:06:56;14.23;;;9.25;;
30515;SDS011;17297;54.022;10.760;2023-04-06T06:09:41;13.02;;;9.57;;
30515;SDS011;17297;54.022;10.760;2023-04-06T06:12:16;12.48;;;9.27;;
30515;SDS011;17297;54.022;10.760;2023-04-06T06:14:42;12.50;;;9.00;;
30515;SDS011;17297;54.022;10.760;2023-04-06T06:17:08;12.00;;;9.48;;
30515;SDS011;17297;54.022;10.760;2023-04-06T06:19:37;12.35;;;9.48;;
30515;SDS011;17297;54.022;10.760;2023-04-06T06:22:06;12.27;;;9.88;;
30515;SDS011;17297;54.022;10.760;2023-04-06T06:24:35;12.63;;;9.98;;
30515;SDS011;17297;54.022;10.760;2023-04-06T06:27:00;14.30;;;10.88;;
30515;SDS011;17297;54.022;10.760;2023-04-06T06:29:28;15.95;;;11.45;;
30515;SDS011;17297;54.022;10.760;2023-04-06T06:31:53;14.35;;;11.43;;
30515;SDS011;17297;54.022;10.760;2023-04-06T06:34:18;13.90;;;10.55;;
30515;SDS011;17297;54.022;10.760;2023-04-06T06:36:44;16.40;;;11.60;;
30515;SDS011;17297;54.022;10.760;2023-04-06T06:39:12;13.98;;;11.15;;
30515;SDS011;17297;54.022;10.760;2023-04-06T06:41:38;16.00;;;11.73;;
30515;SDS011;17297;54.022;10.760;2023-04-06T06:44:04;17.33;;;12.15;;
30515;SDS011;17297;54.022;10.760;2023-04-06T06:46:30;16.00;;;11.82;;
30515;SDS011;17297;54.022;10.760;2023-04-06T06:48:55;14.88;;;11.65;;
30515;SDS011;17297;54.022;10.760;2023-04-06T06:51:22;16.98;;;12.35;;
30515;SDS011;17297;54.022;10.760;2023-04-06T06:53:47;13.50;;;10.30;;
30515;SDS011;17297;54.022;10.760;2023-04-06T06:56:12;18.17;;;12.30;;
30515;SDS011;17297;54.022;10.760;2023-04-06T06:58:38;18.38;;;12.05;;
30515;SDS011;17297;54.022;10.760;2023-04-06T07:01:03;17.02;;;11.85;;
30515;SDS011;17297;54.022;10.760;2023-04-06T07:03:30;13.95;;;10.75;;
30515;SDS011;17297;54.022;10.760;2023-04-06T07:05:55;17.52;;;11.10;;
30515;SDS011;17297;54.022;10.760;2023-04-06T07:08:23;14.02;;;9.73;;
30515;SDS011;17297;54.022;10.760;2023-04-06T07:10:52;12.45;;;9.60;;
30515;SDS011;17297;54.022;10.760;2023-04-06T07:13:24;13.82;;;10.43;;
30515;SDS011;17297;54.022;10.760;2023-04-06T07:15:54;16.25;;;11.10;;
30515;SDS011;17297;54.022;10.760;2023-04-06T07:18:19;14.35;;;10.88;;
30515;SDS011;17297;54.022;10.760;2023-04-06T07:20:48;13.25;;;10.07;;
30515;SDS011;17297;54.022;10.760;2023-04-06T07:23:15;12.35;;;9.32;;
30515;SDS011;17297;54.022;10.760;2023-04-06T07:25:40;11.52;;;8.90;;
30515;SDS011;17297;54.022;10.760;2023-04-06T07:28:08;10.73;;;9.18;;
30515;SDS011;17297;54.022;10.760;2023-04-06T07:30:33;9.30;;;7.50;;
30515;SDS011;17297;54.022;10.760;2023-04-06T07:32:59;10.38;;;8.05;;
30515;SDS011;17297;54.022;10.760;2023-04-06T07:35:26;10.15;;;7.85;;
30515;SDS011;17297;54.022;10.760;2023-04-06T07:37:53;9.85;;;7.55;;
30515;SDS011;17297;54.022;10.760;2023-04-06T07:40:20;10.82;;;7.93;;
30515;SDS011;17297;54.022;10.760;2023-04-06T07:42:45;11.95;;;8.07;;
30515;SDS011;17297;54.022;10.760;2023-04-06T07:45:11;13.80;;;8.07;;
30515;SDS011;17297;54.022;10.760;2023-04-06T07:47:37;10.60;;;7.10;;
30515;SDS011;17297;54.022;10.760;2023-04-06T07:50:02;11.40;;;7.82;;
30515;SDS011;17297;54.022;10.760;2023-04-06T07:52:28;9.50;;;6.38;;
30515;SDS011;17297;54.022;10.760;2023-04-06T07:54:54;11.27;;;6.63;;
30515;SDS011;17297;54.022;10.760;2023-04-06T07:57:20;10.00;;;6.72;;
30515;SDS011;17297;54.022;10.760;2023-04-06T07:59:45;7.43;;;6.20;;
30515;SDS011;17297;54.022;10.760;2023-04-06T08:02:10;9.10;;;6.45;;
30515;SDS011;17297;54.022;10.760;2023-04-06T08:04:36;9.55;;;6.75;;
30515;SDS011;17297;54.022;10.760;2023-04-06T08:07:01;8.90;;;6.47;;
30515;SDS011;17297;54.022;10.760;2023-04-06T08:09:27;7.65;;;6.05;;
30515;SDS011;17297;54.022;10.760;2023-04-06T08:11:53;8.85;;;6.93;;
30515;SDS011;17297;54.022;10.760;2023-04-06T08:14:18;8.63;;;6.20;;
30515;SDS011;17297;54.022;10.760;2023-04-06T08:16:44;8.75;;;6.35;;
30515;SDS011;17297;54.022;10.760;2023-04-06T08:19:10;10.35;;;7.75;;
30515;SDS011;17297;54.022;10.760;2023-04-06T08:21:36;10.38;;;7.53;;
30515;SDS011;17297;54.022;10.760;2023-04-06T08:24:01;11.55;;;7.85;;
30515;SDS011;17297;54.022;10.760;2023-04-06T08:26:27;9.55;;;6.78;;
30515;SDS011;17297;54.022;10.760;2023-04-06T08:28:53;9.82;;;7.75;;
30515;SDS011;17297;54.022;10.760;2023-04-06T08:31:18;12.23;;;7.53;;
30515;SDS011;17297;54.022;10.760;2023-04-06T08:33:43;11.45;;;6.57;;
30515;SDS011;17297;54.022;10.760;2023-04-06T08:36:10;10.43;;;6.85;;
30515;SDS011;17297;54.022;10.760;2023-04-06T08:38:39;12.18;;;7.05;;
30515;SDS011;17297;54.022;10.760;2023-04-06T08:41:15;11.32;;;7.75;;
30515;SDS011;17297;54.022;10.760;2023-04-06T08:43:50;12.50;;;9.55;;
30515;SDS011;17297;54.022;10.760;2023-04-06T08:46:22;12.77;;;8.00;;
30515;SDS011;17297;54.022;10.760;2023-04-06T08:48:54;10.55;;;8.13;;
30515;SDS011;17297;54.022;10.760;2023-04-06T08:51:21;11.00;;;7.72;;
30515;SDS011;17297;54.022;10.760;2023-04-06T08:53:48;12.30;;;8.85;;
30515;SDS011;17297;54.022;10.760;2023-04-06T08:56:15;9.85;;;7.30;;
30515;SDS011;17297;54.022;10.760;2023-04-06T08:58:40;12.90;;;9.07;;
30515;SDS011;17297;54.022;10.760;2023-04-06T09:01:07;11.38;;;8.35;;
30515;SDS011;17297;54.022;10.760;2023-04-06T09:03:35;11.40;;;8.35;;
30515;SDS011;17297;54.022;10.760;2023-04-06T09:06:03;8.93;;;7.57;;
30515;SDS011;17297;54.022;10.760;2023-04-06T09:08:29;9.98;;;6.97;;
30515;SDS011;17297;54.022;10.760;2023-04-06T09:10:55;8.65;;;7.15;;
30515;SDS011;17297;54.022;10.760;2023-04-06T09:13:20;9.85;;;7.35;;
30515;SDS011;17297;54.022;10.760;2023-04-06T09:15:46;8.68;;;7.47;;
30515;SDS011;17297;54.022;10.760;2023-04-06T09:18:11;10.57;;;8.48;;
30515;SDS011;17297;54.022;10.760;2023-04-06T09:20:36;10.25;;;8.50;;
30515;SDS011;17297;54.022;10.760;2023-04-06T09:23:02;8.85;;;7.78;;
30515;SDS011;17297;54.022;10.760;2023-04-06T09:25:27;9.57;;;7.97;;
30515;SDS011;17297;54.022;10.760;2023-04-06T09:28:00;8.70;;;7.40;;
30515;SDS011;17297;54.022;10.760;2023-04-06T09:30:29;8.15;;;7.35;;
30515;SDS011;17297;54.022;10.760;2023-04-06T09:32:55;12.68;;;8.05;;
30515;SDS011;17297;54.022;10.760;2023-04-06T09:35:22;8.25;;;6.63;;
30515;SDS011;17297;54.022;10.760;2023-04-06T09:37:49;9.77;;;7.15;;
30515;SDS011;17297;54.022;10.760;2023-04-06T09:40:16;7.00;;;4.47;;
30515;SDS011;17297;54.022;10.760;2023-04-06T09:42:46;6.90;;;5.00;;
30515;SDS011;17297;54.022;10.760;2023-04-06T09:45:13;6.25;;;5.20;;
30515;SDS011;17297;54.022;10.760;2023-04-06T09:47:40;9.25;;;5.15;;
30515;SDS011;17297;54.022;10.760;2023-04-06T09:50:09;6.32;;;4.20;;
30515;SDS011;17297;54.022;10.760;2023-04-06T09:52:37;7.45;;;5.03;;
30515;SDS011;17297;54.022;10.760;2023-04-06T09:55:06;6.43;;;5.22;;
30515;SDS011;17297;54.022;10.760;2023-04-06T09:57:37;5.00;;;4.50;;
30515;SDS011;17297;54.022;10.760;2023-04-06T10:00:17;7.80;;;4.65;;
30515;SDS011;17297;54.022;10.760;2023-04-06T10:02:50;8.70;;;4.57;;
30515;SDS011;17297;54.022;10.760;2023-04-06T10:05:29;6.43;;;3.97;;
30515;SDS011;17297;54.022;10.760;2023-04-06T10:08:05;3.85;;;3.47;;
30515;SDS011;17297;54.022;10.760;2023-04-06T10:10:33;4.78;;;4.10;;
30515;SDS011;17297;54.022;10.760;2023-04-06T10:12:59;4.53;;;3.70;;
30515;SDS011;17297;54.022;10.760;2023-04-06T10:15:25;4.30;;;3.90;;
30515;SDS011;17297;54.022;10.760;2023-04-06T10:17:51;5.05;;;3.60;;
30515;SDS011;17297;54.022;10.760;2023-04-06T10:25:54;4.60;;;3.50;;
30515;SDS011;17297;54.022;10.760;2023-04-06T10:28:20;4.80;;;3.80;;
30515;SDS011;17297;54.022;10.760;2023-04-06T10:30:46;5.55;;;3.15;;
30515;SDS011;17297;54.022;10.760;2023-04-06T10:33:12;2.97;;;2.47;;
30515;SDS011;17297;54.022;10.760;2023-04-06T10:35:38;3.38;;;2.60;;
30515;SDS011;17297;54.022;10.760;2023-04-06T10:38:04;2.60;;;2.10;;
30515;SDS011;17297;54.022;10.760;2023-04-06T10:40:30;4.32;;;2.78;;
30515;SDS011;17297;54.022;10.760;2023-04-06T10:43:06;2.33;;;1.98;;
30515;SDS011;17297;54.022;10.760;2023-04-06T10:45:55;2.63;;;1.80;;
30515;SDS011;17297;54.022;10.760;2023-04-06T10:48:22;3.17;;;2.38;;
30515;SDS011;17297;54.022;10.760;2023-04-06T10:50:49;3.55;;;2.83;;
30515;SDS011;17297;54.022;10.760;2023-04-06T10:53:23;3.75;;;2.40;;
30515;SDS011;17297;54.022;10.760;2023-04-06T10:55:53;4.38;;;2.83;;
30515;SDS011;17297;54.022;10.760;2023-04-06T10:58:20;3.72;;;2.00;;
30515;SDS011;17297;54.022;10.760;2023-04-06T11:00:50;2.47;;;2.10;;
30515;SDS011;17297;54.022;10.760;2023-04-06T11:03:16;2.75;;;2.08;;
30515;SDS011;17297;54.022;10.760;2023-04-06T11:05:45;3.78;;;2.33;;
30515;SDS011;17297;54.022;10.760;2023-04-06T11:08:21;4.07;;;2.58;;
30515;SDS011;17297;54.022;10.760;2023-04-06T11:11:07;19.02;;;4.30;;
30515;SDS011;17297;54.022;10.760;2023-04-06T11:16:06;4.50;;;2.90;;
30515;SDS011;17297;54.022;10.760;2023-04-06T11:18:36;3.50;;;2.80;;
30515;SDS011;17297;54.022;10.760;2023-04-06T11:21:02;4.60;;;2.38;;
30515;SDS011;17297;54.022;10.760;2023-04-06T11:23:27;13.70;;;2.50;;
30515;SDS011;17297;54.022;10.760;2023-04-06T11:25:53;4.15;;;2.58;;
30515;SDS011;17297;54.022;10.760;2023-04-06T11:28:19;4.90;;;3.08;;
30515;SDS011;17297;54.022;10.760;2023-04-06T11:30:45;3.05;;;2.25;;
30515;SDS011;17297;54.022;10.760;2023-04-06T11:33:19;2.53;;;1.80;;
30515;SDS011;17297;54.022;10.760;2023-04-06T11:35:46;3.13;;;2.38;;
30515;SDS011;17297;54.022;10.760;2023-04-06T11:38:11;4.47;;;2.75;;
30515;SDS011;17297;54.022;10.760;2023-04-06T11:40:36;3.10;;;2.53;;
30515;SDS011;17297;54.022;10.760;2023-04-06T11:43:02;4.20;;;3.00;;
30515;SDS011;17297;54.022;10.760;2023-04-06T11:45:38;4.55;;;2.63;;
30515;SDS011;17297;54.022;10.760;2023-04-06T11:48:04;3.08;;;2.38;;
30515;SDS011;17297;54.022;10.760;2023-04-06T11:50:32;3.40;;;2.80;;
30515;SDS011;17297;54.022;10.760;2023-04-06T11:53:01;3.20;;;2.88;;
30515;SDS011;17297;54.022;10.760;2023-04-06T11:55:28;4.32;;;2.67;;
30515;SDS011;17297;54.022;10.760;2023-04-06T11:57:53;3.58;;;2.70;;
30515;SDS011;17297;54.022;10.760;2023-04-06T12:00:19;2.95;;;2.38;;
30515;SDS011;17297;54.022;10.760;2023-04-06T12:02:46;2.28;;;1.95;;
30515;SDS011;17297;54.022;10.760;2023-04-06T12:05:12;2.92;;;1.98;;
30515;SDS011;17297;54.022;10.760;2023-04-06T12:07:37;16.08;;;3.00;;
30515;SDS011;17297;54.022;10.760;2023-04-06T12:10:03;4.03;;;2.15;;
30515;SDS011;17297;54.022;10.760;2023-04-06T12:12:29;3.15;;;2.85;;
30515;SDS011;17297;54.022;10.760;2023-04-06T12:14:55;8.65;;;3.33;;
30515;SDS011;17297;54.022;10.760;2023-04-06T12:17:21;4.43;;;3.10;;
30515;SDS011;17297;54.022;10.760;2023-04-06T12:19:46;5.18;;;2.60;;
30515;SDS011;17297;54.022;10.760;2023-04-06T12:22:12;6.53;;;3.30;;
30515;SDS011;17297;54.022;10.760;2023-04-06T12:24:37;3.90;;;2.75;;
30515;SDS011;17297;54.022;10.760;2023-04-06T12:27:03;3.65;;;3.35;;
30515;SDS011;17297;54.022;10.760;2023-04-06T12:29:28;4.03;;;3.40;;
30515;SDS011;17297;54.022;10.760;2023-04-06T12:31:53;4.18;;;3.63;;
30515;SDS011;17297;54.022;10.760;2023-04-06T12:34:19;4.07;;;3.10;;
30515;SDS011;17297;54.022;10.760;2023-04-06T12:36:44;4.03;;;2.85;;
30515;SDS011;17297;54.022;10.760;2023-04-06T12:39:10;5.20;;;3.20;;
30515;SDS011;17297;54.022;10.760;2023-04-06T12:41:36;4.70;;;3.58;;
30515;SDS011;17297;54.022;10.760;2023-04-06T12:44:02;4.32;;;3.60;;
30515;SDS011;17297;54.022;10.760;2023-04-06T12:46:28;7.60;;;5.80;;
30515;SDS011;17297;54.022;10.760;2023-04-06T12:48:55;5.35;;;3.70;;
30515;SDS011;17297;54.022;10.760;2023-04-06T12:51:21;4.50;;;3.60;;
30515;SDS011;17297;54.022;10.760;2023-04-06T12:53:47;3.33;;;2.97;;
30515;SDS011;17297;54.022;10.760;2023-04-06T12:56:13;3.60;;;3.22;;
30515;SDS011;17297;54.022;10.760;2023-04-06T12:58:40;6.22;;;3.90;;
30515;SDS011;17297;54.022;10.760;2023-04-06T13:01:06;4.25;;;3.53;;
30515;SDS011;17297;54.022;10.760;2023-04-06T13:03:32;4.60;;;3.72;;
30515;SDS011;17297;54.022;10.760;2023-04-06T13:05:58;4.07;;;3.30;;
30515;SDS011;17297;54.022;10.760;2023-04-06T13:08:25;4.75;;;3.28;;
30515;SDS011;17297;54.022;10.760;2023-04-06T13:10:51;4.35;;;4.00;;
30515;SDS011;17297;54.022;10.760;2023-04-06T13:13:17;12.45;;;5.85;;
30515;SDS011;17297;54.022;10.760;2023-04-06T13:15:49;4.07;;;3.53;;
30515;SDS011;17297;54.022;10.760;2023-04-06T13:18:16;4.50;;;3.45;;
30515;SDS011;17297;54.022;10.760;2023-04-06T13:20:41;4.85;;;3.50;;
30515;SDS011;17297;54.022;10.760;2023-04-06T13:23:07;3.80;;;3.20;;
30515;SDS011;17297;54.022;10.760;2023-04-06T13:25:32;4.00;;;3.45;;
30515;SDS011;17297;54.022;10.760;2023-04-06T13:27:58;4.85;;;3.80;;
30515;SDS011;17297;54.022;10.760;2023-04-06T13:30:23;5.45;;;4.00;;
30515;SDS011;17297;54.022;10.760;2023-04-06T13:32:48;4.13;;;3.63;;
30515;SDS011;17297;54.022;10.760;2023-04-06T13:35:14;6.43;;;3.92;;
30515;SDS011;17297;54.022;10.760;2023-04-06T13:37:39;8.30;;;4.85;;
30515;SDS011;17297;54.022;10.760;2023-04-06T13:40:05;5.80;;;4.70;;
30515;SDS011;17297;54.022;10.760;2023-04-06T13:42:31;5.97;;;4.93;;
30515;SDS011;17297;54.022;10.760;2023-04-06T13:44:57;4.28;;;3.28;;
30515;SDS011;17297;54.022;10.760;2023-04-06T13:47:23;5.85;;;3.80;;
30515;SDS011;17297;54.022;10.760;2023-04-06T13:49:51;4.38;;;3.35;;
30515;SDS011;17297;54.022;10.760;2023-04-06T13:52:17;5.93;;;3.70;;
30515;SDS011;17297;54.022;10.760;2023-04-06T13:54:43;6.63;;;3.70;;
30515;SDS011;17297;54.022;10.760;2023-04-06T13:57:08;6.00;;;4.30;;
30515;SDS011;17297;54.022;10.760;2023-04-06T13:59:34;5.90;;;3.95;;
30515;SDS011;17297;54.022;10.760;2023-04-06T14:02:01;5.60;;;4.07;;
30515;SDS011;17297;54.022;10.760;2023-04-06T14:04:27;5.05;;;4.35;;
30515;SDS011;17297;54.022;10.760;2023-04-06T14:06:52;5.53;;;4.68;;
30515;SDS011;17297;54.022;10.760;2023-04-06T14:09:17;6.43;;;4.65;;
30515;SDS011;17297;54.022;10.760;2023-04-06T14:11:43;3.72;;;3.42;;
30515;SDS011;17297;54.022;10.760;2023-04-06T14:14:08;8.25;;;4.53;;
30515;SDS011;17297;54.022;10.760;2023-04-06T14:16:34;3.80;;;3.50;;
30515;SDS011;17297;54.022;10.760;2023-04-06T14:18:59;5.38;;;3.28;;
30515;SDS011;17297;54.022;10.760;2023-04-06T14:21:25;5.80;;;4.03;;
30515;SDS011;17297;54.022;10.760;2023-04-06T14:23:50;6.35;;;5.07;;
30515;SDS011;17297;54.022;10.760;2023-04-06T14:26:15;7.05;;;5.25;;
30515;SDS011;17297;54.022;10.760;2023-04-06T14:28:41;6.97;;;6.28;;
30515;SDS011;17297;54.022;10.760;2023-04-06T14:31:10;9.85;;;7.25;;
30515;SDS011;17297;54.022;10.760;2023-04-06T14:33:38;7.32;;;5.85;;
30515;SDS011;17297;54.022;10.760;2023-04-06T14:36:04;6.75;;;6.13;;